sensor_id;sensor_type;location;lat;lon;timestamp;P1;durP1;ratioP1;P2;durP2;ratioP2
22571;SDS011;11452;53.368;14.658;2023-04-06T00:02:01;5.57;;;3.73;;
22571;SDS011;11452;53.368;14.658;2023-04-06T00:07:07;6.53;;;3.70;;
22571;SDS011;11452;53.368;14.658;2023-04-06T00:12:13;6.67;;;4.00;;
22571;SDS011;11452;53.368;14.658;2023-04-06T00:17:18;5.63;;;4.03;;
22571;SDS011;11452;53.368;14.658;2023-04-06T00:22:24;4.63;;;3.60;;
22571;SDS011;11452;53.368;14.658;2023-04-06T00:27:30;5.70;;;4.33;;
22571;SDS011;11452;53.368;14.658;2023-04-06T00:32:35;6.53;;;4.63;;
22571;SDS011;11452;53.368;14.658;2023-04-06T00:37:41;6.43;;;4.43;;
22571;SDS011;11452;53.368;14.658;2023-04-06T00:42:46;4.77;;;3.60;;
22571;SDS011;11452;53.368;14.658;2023-04-06T00:47:52;6.33;;;3.83;;
22571;SDS011;11452;53.368;14.658;2023-04-06T00:52:58;4.87;;;4.37;;
22571;SDS011;11452;53.368;14.658;2023-04-06T00:58:05;6.03;;;3.97;;
22571;SDS011;11452;53.368;14.658;2023-04-06T01:03:12;7.27;;;4.77;;
22571;SDS011;11452;53.368;14.658;2023-04-06T01:08:18;5.57;;;3.67;;
22571;SDS011;11452;53.368;14.658;2023-04-06T01:13:28;7.20;;;4.57;;
22571;SDS011;11452;53.368;14.658;2023-04-06T01:18:35;7.67;;;4.80;;
22571;SDS011;11452;53.368;14.658;2023-04-06T01:23:44;6.27;;;4.70;;
22571;SDS011;11452;53.368;14.658;2023-04-06T01:28:52;7.33;;;4.70;;
22571;SDS011;11452;53.368;14.658;2023-04-06T01:33:59;6.33;;;4.70;;
22571;SDS011;11452;53.368;14.658;2023-04-06T01:39:05;6.87;;;4.13;;
22571;SDS011;11452;53.368;14.658;2023-04-06T01:44:16;7.33;;;4.63;;
22571;SDS011;11452;53.368;14.658;2023-04-06T01:49:23;7.30;;;4.23;;
22571;SDS011;11452;53.368;14.658;2023-04-06T01:54:30;7.40;;;6.03;;
22571;SDS011;11452;53.368;14.658;2023-04-06T01:59:41;10.83;;;5.83;;
22571;SDS011;11452;53.368;14.658;2023-04-06T02:04:48;8.20;;;5.47;;
22571;SDS011;11452;53.368;14.658;2023-04-06T02:09:54;8.00;;;5.10;;
22571;SDS011;11452;53.368;14.658;2023-04-06T02:15:02;9.63;;;5.27;;
22571;SDS011;11452;53.368;14.658;2023-04-06T02:20:08;8.10;;;5.10;;
22571;SDS011;11452;53.368;14.658;2023-04-06T02:25:14;7.70;;;5.20;;
22571;SDS011;11452;53.368;14.658;2023-04-06T02:30:20;6.27;;;4.40;;
22571;SDS011;11452;53.368;14.658;2023-04-06T02:35:27;10.40;;;6.10;;
22571;SDS011;11452;53.368;14.658;2023-04-06T02:40:35;10.10;;;6.83;;
22571;SDS011;11452;53.368;14.658;2023-04-06T02:45:42;11.97;;;6.77;;
22571;SDS011;11452;53.368;14.658;2023-04-06T02:50:48;11.50;;;6.90;;
22571;SDS011;11452;53.368;14.658;2023-04-06T02:55:53;10.00;;;7.50;;
22571;SDS011;11452;53.368;14.658;2023-04-06T03:01:01;10.77;;;6.77;;
22571;SDS011;11452;53.368;14.658;2023-04-06T03:06:06;10.47;;;6.10;;
22571;SDS011;11452;53.368;14.658;2023-04-06T03:11:12;8.00;;;5.73;;
22571;SDS011;11452;53.368;14.658;2023-04-06T03:16:18;10.77;;;5.73;;
22571;SDS011;11452;53.368;14.658;2023-04-06T03:21:25;7.20;;;5.40;;
22571;SDS011;11452;53.368;14.658;2023-04-06T03:26:31;6.13;;;4.37;;
22571;SDS011;11452;53.368;14.658;2023-04-06T03:31:38;6.13;;;5.07;;
22571;SDS011;11452;53.368;14.658;2023-04-06T03:36:52;5.87;;;4.20;;
22571;SDS011;11452;53.368;14.658;2023-04-06T03:42:00;6.90;;;4.50;;
22571;SDS011;11452;53.368;14.658;2023-04-06T03:47:07;7.40;;;4.83;;
22571;SDS011;11452;53.368;14.658;2023-04-06T03:52:13;9.70;;;5.77;;
22571;SDS011;11452;53.368;14.658;2023-04-06T03:57:18;9.87;;;5.97;;
22571;SDS011;11452;53.368;14.658;2023-04-06T04:02:24;8.73;;;5.90;;
22571;SDS011;11452;53.368;14.658;2023-04-06T04:07:30;7.47;;;5.33;;
22571;SDS011;11452;53.368;14.658;2023-04-06T04:12:35;7.23;;;4.87;;
22571;SDS011;11452;53.368;14.658;2023-04-06T04:17:41;9.43;;;4.93;;
22571;SDS011;11452;53.368;14.658;2023-04-06T04:22:48;5.77;;;4.10;;
22571;SDS011;11452;53.368;14.658;2023-04-06T04:27:54;5.30;;;3.90;;
22571;SDS011;11452;53.368;14.658;2023-04-06T04:33:00;4.50;;;3.23;;
22571;SDS011;11452;53.368;14.658;2023-04-06T04:38:06;5.23;;;3.47;;
22571;SDS011;11452;53.368;14.658;2023-04-06T04:43:13;5.30;;;2.87;;
22571;SDS011;11452;53.368;14.658;2023-04-06T04:48:19;4.70;;;3.07;;
22571;SDS011;11452;53.368;14.658;2023-04-06T04:53:29;11.67;;;6.50;;
22571;SDS011;11452;53.368;14.658;2023-04-06T04:58:36;7.90;;;6.07;;
22571;SDS011;11452;53.368;14.658;2023-04-06T05:03:43;8.73;;;5.50;;
22571;SDS011;11452;53.368;14.658;2023-04-06T05:08:50;8.67;;;5.67;;
22571;SDS011;11452;53.368;14.658;2023-04-06T05:13:57;6.70;;;5.50;;
22571;SDS011;11452;53.368;14.658;2023-04-06T05:19:04;7.83;;;5.70;;
22571;SDS011;11452;53.368;14.658;2023-04-06T05:24:12;6.43;;;5.43;;
22571;SDS011;11452;53.368;14.658;2023-04-06T05:29:19;9.80;;;5.70;;
22571;SDS011;11452;53.368;14.658;2023-04-06T05:34:24;8.13;;;5.57;;
22571;SDS011;11452;53.368;14.658;2023-04-06T05:39:31;9.23;;;5.93;;
22571;SDS011;11452;53.368;14.658;2023-04-06T05:44:38;8.50;;;6.37;;
22571;SDS011;11452;53.368;14.658;2023-04-06T05:49:45;8.33;;;5.20;;
22571;SDS011;11452;53.368;14.658;2023-04-06T05:54:52;9.27;;;5.80;;
22571;SDS011;11452;53.368;14.658;2023-04-06T05:59:59;7.67;;;5.23;;
22571;SDS011;11452;53.368;14.658;2023-04-06T06:05:09;7.47;;;4.83;;
22571;SDS011;11452;53.368;14.658;2023-04-06T06:10:15;8.40;;;5.27;;
22571;SDS011;11452;53.368;14.658;2023-04-06T06:15:21;6.20;;;4.67;;
22571;SDS011;11452;53.368;14.658;2023-04-06T06:20:27;9.03;;;5.03;;
22571;SDS011;11452;53.368;14.658;2023-04-06T06:25:35;5.87;;;4.77;;
22571;SDS011;11452;53.368;14.658;2023-04-06T06:30:41;6.90;;;4.53;;
22571;SDS011;11452;53.368;14.658;2023-04-06T06:35:48;5.27;;;3.77;;
22571;SDS011;11452;53.368;14.658;2023-04-06T06:40:55;5.83;;;4.20;;
22571;SDS011;11452;53.368;14.658;2023-04-06T06:46:02;5.50;;;3.90;;
22571;SDS011;11452;53.368;14.658;2023-04-06T06:51:08;5.30;;;4.43;;
22571;SDS011;11452;53.368;14.658;2023-04-06T06:56:15;6.23;;;4.60;;
22571;SDS011;11452;53.368;14.658;2023-04-06T07:01:21;7.60;;;4.20;;
22571;SDS011;11452;53.368;14.658;2023-04-06T07:06:27;6.33;;;3.30;;
22571;SDS011;11452;53.368;14.658;2023-04-06T07:11:33;6.17;;;4.27;;
22571;SDS011;11452;53.368;14.658;2023-04-06T07:16:38;5.20;;;4.40;;
22571;SDS011;11452;53.368;14.658;2023-04-06T07:21:45;4.63;;;4.00;;
22571;SDS011;11452;53.368;14.658;2023-04-06T07:26:52;5.03;;;3.47;;
22571;SDS011;11452;53.368;14.658;2023-04-06T07:31:58;4.13;;;3.67;;
22571;SDS011;11452;53.368;14.658;2023-04-06T07:37:04;4.97;;;3.47;;
22571;SDS011;11452;53.368;14.658;2023-04-06T07:42:10;4.93;;;3.70;;
22571;SDS011;11452;53.368;14.658;2023-04-06T07:47:16;10.80;;;4.33;;
22571;SDS011;11452;53.368;14.658;2023-04-06T07:52:22;4.53;;;3.50;;
22571;SDS011;11452;53.368;14.658;2023-04-06T07:57:28;6.53;;;4.70;;
22571;SDS011;11452;53.368;14.658;2023-04-06T08:02:34;7.67;;;4.27;;
22571;SDS011;11452;53.368;14.658;2023-04-06T08:07:40;7.10;;;5.20;;
22571;SDS011;11452;53.368;14.658;2023-04-06T08:12:46;7.83;;;6.00;;
22571;SDS011;11452;53.368;14.658;2023-04-06T08:17:51;7.50;;;5.40;;
22571;SDS011;11452;53.368;14.658;2023-04-06T08:22:58;8.43;;;4.83;;
22571;SDS011;11452;53.368;14.658;2023-04-06T08:28:04;7.13;;;5.70;;
22571;SDS011;11452;53.368;14.658;2023-04-06T08:33:10;5.97;;;5.37;;
22571;SDS011;11452;53.368;14.658;2023-04-06T08:38:15;6.67;;;5.50;;
22571;SDS011;11452;53.368;14.658;2023-04-06T08:43:21;7.57;;;5.90;;
22571;SDS011;11452;53.368;14.658;2023-04-06T08:48:28;7.13;;;5.93;;
22571;SDS011;11452;53.368;14.658;2023-04-06T08:53:34;7.50;;;5.60;;
22571;SDS011;11452;53.368;14.658;2023-04-06T08:58:40;7.73;;;4.47;;
22571;SDS011;11452;53.368;14.658;2023-04-06T09:03:46;5.37;;;4.27;;
22571;SDS011;11452;53.368;14.658;2023-04-06T09:08:54;6.07;;;5.40;;
22571;SDS011;11452;53.368;14.658;2023-04-06T09:14:01;5.00;;;3.80;;
22571;SDS011;11452;53.368;14.658;2023-04-06T09:19:07;6.47;;;4.00;;
22571;SDS011;11452;53.368;14.658;2023-04-06T09:24:13;5.83;;;4.27;;
22571;SDS011;11452;53.368;14.658;2023-04-06T09:29:24;4.97;;;4.17;;
22571;SDS011;11452;53.368;14.658;2023-04-06T09:34:31;6.07;;;3.87;;
22571;SDS011;11452;53.368;14.658;2023-04-06T09:39:37;5.50;;;3.20;;
22571;SDS011;11452;53.368;14.658;2023-04-06T09:44:43;5.10;;;3.57;;
22571;SDS011;11452;53.368;14.658;2023-04-06T09:49:49;7.27;;;3.70;;
22571;SDS011;11452;53.368;14.658;2023-04-06T09:54:59;4.90;;;3.83;;
22571;SDS011;11452;53.368;14.658;2023-04-06T10:00:07;5.40;;;3.50;;
22571;SDS011;11452;53.368;14.658;2023-04-06T10:05:17;3.73;;;3.10;;
22571;SDS011;11452;53.368;14.658;2023-04-06T10:10:40;4.17;;;3.27;;
22571;SDS011;11452;53.368;14.658;2023-04-06T10:15:47;5.13;;;4.13;;
22571;SDS011;11452;53.368;14.658;2023-04-06T10:21:06;4.63;;;4.00;;
22571;SDS011;11452;53.368;14.658;2023-04-06T10:26:21;7.00;;;4.73;;
22571;SDS011;11452;53.368;14.658;2023-04-06T10:31:27;6.40;;;4.50;;
22571;SDS011;11452;53.368;14.658;2023-04-06T10:36:34;5.43;;;4.50;;
22571;SDS011;11452;53.368;14.658;2023-04-06T10:46:52;10.70;;;5.77;;
22571;SDS011;11452;53.368;14.658;2023-04-06T10:52:04;5.93;;;4.70;;
22571;SDS011;11452;53.368;14.658;2023-04-06T10:57:12;5.90;;;4.27;;
22571;SDS011;11452;53.368;14.658;2023-04-06T11:02:20;5.90;;;4.10;;
22571;SDS011;11452;53.368;14.658;2023-04-06T11:07:26;5.23;;;3.80;;
22571;SDS011;11452;53.368;14.658;2023-04-06T11:12:35;4.07;;;3.70;;
22571;SDS011;11452;53.368;14.658;2023-04-06T11:17:40;4.10;;;3.37;;
22571;SDS011;11452;53.368;14.658;2023-04-06T11:22:56;6.23;;;3.23;;
22571;SDS011;11452;53.368;14.658;2023-04-06T11:27:56;4.37;;;3.97;;
22571;SDS011;11452;53.368;14.658;2023-04-06T11:33:04;6.13;;;3.77;;
22571;SDS011;11452;53.368;14.658;2023-04-06T11:38:09;4.20;;;3.80;;
22571;SDS011;11452;53.368;14.658;2023-04-06T11:43:15;5.57;;;4.40;;
22571;SDS011;11452;53.368;14.658;2023-04-06T11:48:21;6.80;;;4.27;;
22571;SDS011;11452;53.368;14.658;2023-04-06T11:53:29;6.20;;;4.50;;
22571;SDS011;11452;53.368;14.658;2023-04-06T11:58:34;7.63;;;4.27;;
22571;SDS011;11452;53.368;14.658;2023-04-06T12:03:40;4.77;;;4.10;;
22571;SDS011;11452;53.368;14.658;2023-04-06T12:08:46;5.83;;;4.60;;
22571;SDS011;11452;53.368;14.658;2023-04-06T12:13:52;4.77;;;3.57;;
22571;SDS011;11452;53.368;14.658;2023-04-06T12:19:00;7.23;;;3.63;;
22571;SDS011;11452;53.368;14.658;2023-04-06T12:24:07;4.40;;;4.00;;
22571;SDS011;11452;53.368;14.658;2023-04-06T12:29:13;5.17;;;4.30;;
22571;SDS011;11452;53.368;14.658;2023-04-06T12:34:18;4.87;;;3.50;;
22571;SDS011;11452;53.368;14.658;2023-04-06T12:39:25;5.60;;;3.67;;
22571;SDS011;11452;53.368;14.658;2023-04-06T12:44:32;5.67;;;4.17;;
22571;SDS011;11452;53.368;14.658;2023-04-06T12:49:37;5.63;;;3.97;;
22571;SDS011;11452;53.368;14.658;2023-04-06T12:54:43;5.53;;;3.60;;
22571;SDS011;11452;53.368;14.658;2023-04-06T12:59:48;4.43;;;3.00;;
22571;SDS011;11452;53.368;14.658;2023-04-06T13:04:55;3.43;;;3.10;;
22571;SDS011;11452;53.368;14.658;2023-04-06T13:10:00;3.70;;;3.33;;
22571;SDS011;11452;53.368;14.658;2023-04-06T13:15:06;6.17;;;3.10;;
22571;SDS011;11452;53.368;14.658;2023-04-06T13:20:12;6.10;;;4.00;;
22571;SDS011;11452;53.368;14.658;2023-04-06T13:25:18;4.83;;;3.70;;
22571;SDS011;11452;53.368;14.658;2023-04-06T13:30:23;5.57;;;3.63;;
22571;SDS011;11452;53.368;14.658;2023-04-06T13:35:29;4.90;;;3.80;;
22571;SDS011;11452;53.368;14.658;2023-04-06T13:40:34;5.40;;;4.33;;
22571;SDS011;11452;53.368;14.658;2023-04-06T13:45:41;4.10;;;3.73;;
22571;SDS011;11452;53.368;14.658;2023-04-06T13:50:50;6.17;;;3.67;;
22571;SDS011;11452;53.368;14.658;2023-04-06T13:55:56;5.80;;;4.50;;
22571;SDS011;11452;53.368;14.658;2023-04-06T14:01:05;4.73;;;4.37;;
22571;SDS011;11452;53.368;14.658;2023-04-06T14:06:14;5.10;;;4.07;;
22571;SDS011;11452;53.368;14.658;2023-04-06T14:11:21;5.57;;;4.17;;
22571;SDS011;11452;53.368;14.658;2023-04-06T14:16:27;5.27;;;4.23;;
22571;SDS011;11452;53.368;14.658;2023-04-06T14:21:32;6.10;;;4.03;;
22571;SDS011;11452;53.368;14.658;2023-04-06T14:26:38;4.63;;;4.03;;
22571;SDS011;11452;53.368;14.658;2023-04-06T14:31:47;5.63;;;4.17;;
22571;SDS011;11452;53.368;14.658;2023-04-06T14:36:53;4.37;;;3.97;;
22571;SDS011;11452;53.368;14.658;2023-04-06T14:41:59;4.40;;;4.00;;
22571;SDS011;11452;53.368;14.658;2023-04-06T14:47:05;6.57;;;3.83;;
22571;SDS011;11452;53.368;14.658;2023-04-06T14:52:10;4.43;;;3.70;;
22571;SDS011;11452;53.368;14.658;2023-04-06T14:57:16;4.77;;;3.93;;
22571;SDS011;11452;53.368;14.658;2023-04-06T15:02:22;3.90;;;3.50;;
22571;SDS011;11452;53.368;14.658;2023-04-06T15:07:27;4.93;;;4.03;;
22571;SDS011;11452;53.368;14.658;2023-04-06T15:12:35;4.50;;;3.93;;
22571;SDS011;11452;53.368;14.658;2023-04-06T15:17:40;5.03;;;3.60;;
22571;SDS011;11452;53.368;14.658;2023-04-06T15:22:46;4.43;;;4.00;;
22571;SDS011;11452;53.368;14.658;2023-04-06T15:27:53;4.00;;;3.37;;
22571;SDS011;11452;53.368;14.658;2023-04-06T15:32:59;3.97;;;3.67;;
22571;SDS011;11452;53.368;14.658;2023-04-06T15:38:08;4.73;;;3.60;;
22571;SDS011;11452;53.368;14.658;2023-04-06T15:43:14;4.53;;;3.67;;
22571;SDS011;11452;53.368;14.658;2023-04-06T15:48:20;4.30;;;3.90;;
22571;SDS011;11452;53.368;14.658;2023-04-06T15:53:27;5.23;;;3.73;;
22571;SDS011;11452;53.368;14.658;2023-04-06T15:58:33;3.50;;;3.20;;
22571;SDS011;11452;53.368;14.658;2023-04-06T16:03:38;4.50;;;3.47;;
22571;SDS011;11452;53.368;14.658;2023-04-06T16:08:44;4.13;;;3.57;;
22571;SDS011;11452;53.368;14.658;2023-04-06T16:13:50;4.13;;;3.73;;
22571;SDS011;11452;53.368;14.658;2023-04-06T16:18:58;3.80;;;3.30;;
22571;SDS011;11452;53.368;14.658;2023-04-06T16:24:04;4.43;;;3.30;;
22571;SDS011;11452;53.368;14.658;2023-04-06T16:29:11;3.33;;;3.07;;
22571;SDS011;11452;53.368;14.658;2023-04-06T16:34:17;3.20;;;2.90;;
22571;SDS011;11452;53.368;14.658;2023-04-06T16:39:22;4.03;;;2.90;;
22571;SDS011;11452;53.368;14.658;2023-04-06T16:44:28;6.03;;;3.67;;
22571;SDS011;11452;53.368;14.658;2023-04-06T16:49:34;4.00;;;2.80;;
22571;SDS011;11452;53.368;14.658;2023-04-06T16:54:39;3.10;;;2.90;;
22571;SDS011;11452;53.368;14.658;2023-04-06T16:59:45;4.33;;;2.97;;
22571;SDS011;11452;53.368;14.658;2023-04-06T17:04:51;4.27;;;3.17;;
22571;SDS011;11452;53.368;14.658;2023-04-06T17:09:58;4.43;;;3.23;;
22571;SDS011;11452;53.368;14.658;2023-04-06T17:15:05;5.30;;;2.77;;
22571;SDS011;11452;53.368;14.658;2023-04-06T17:20:11;3.00;;;2.70;;
22571;SDS011;11452;53.368;14.658;2023-04-06T17:25:17;4.73;;;3.23;;
22571;SDS011;11452;53.368;14.658;2023-04-06T17:30:22;3.60;;;3.23;;
22571;SDS011;11452;53.368;14.658;2023-04-06T17:35:28;4.00;;;3.23;;
22571;SDS011;11452;53.368;14.658;2023-04-06T17:40:34;6.30;;;3.37;;
22571;SDS011;11452;53.368;14.658;2023-04-06T17:45:40;4.63;;;3.40;;
22571;SDS011;11452;53.368;14.658;2023-04-06T17:50:46;6.67;;;4.63;;
22571;SDS011;11452;53.368;14.658;2023-04-06T17:55:51;5.93;;;4.63;;
22571;SDS011;11452;53.368;14.658;2023-04-06T18:00:57;5.13;;;3.87;;
22571;SDS011;11452;53.368;14.658;2023-04-06T18:06:12;5.70;;;3.77;;
22571;SDS011;11452;53.368;14.658;2023-04-06T18:11:20;4.00;;;3.00;;
22571;SDS011;11452;53.368;14.658;2023-04-06T18:16:25;4.20;;;2.83;;
22571;SDS011;11452;53.368;14.658;2023-04-06T18:21:31;4.73;;;2.87;;
22571;SDS011;11452;53.368;14.658;2023-04-06T18:26:37;4.50;;;2.90;;
22571;SDS011;11452;53.368;14.658;2023-04-06T18:31:43;5.23;;;3.10;;
22571;SDS011;11452;53.368;14.658;2023-04-06T18:36:50;4.07;;;2.60;;
22571;SDS011;11452;53.368;14.658;2023-04-06T18:41:56;4.17;;;3.00;;
22571;SDS011;11452;53.368;14.658;2023-04-06T18:47:01;5.80;;;2.60;;
22571;SDS011;11452;53.368;14.658;2023-04-06T18:52:08;4.07;;;3.10;;
22571;SDS011;11452;53.368;14.658;2023-04-06T18:57:14;2.60;;;2.30;;
22571;SDS011;11452;53.368;14.658;2023-04-06T19:02:19;3.63;;;2.70;;
22571;SDS011;11452;53.368;14.658;2023-04-06T19:07:25;2.93;;;2.43;;
22571;SDS011;11452;53.368;14.658;2023-04-06T19:12:34;5.13;;;2.73;;
22571;SDS011;11452;53.368;14.658;2023-04-06T19:17:42;10.80;;;5.37;;
22571;SDS011;11452;53.368;14.658;2023-04-06T19:22:48;6.37;;;4.40;;
22571;SDS011;11452;53.368;14.658;2023-04-06T19:27:54;9.90;;;5.57;;
22571;SDS011;11452;53.368;14.658;2023-04-06T19:32:59;7.67;;;3.80;;
22571;SDS011;11452;53.368;14.658;2023-04-06T19:38:05;5.87;;;4.27;;
22571;SDS011;11452;53.368;14.658;2023-04-06T19:43:13;9.10;;;3.73;;
22571;SDS011;11452;53.368;14.658;2023-04-06T19:48:20;4.93;;;3.57;;
22571;SDS011;11452;53.368;14.658;2023-04-06T19:53:29;5.70;;;3.77;;
22571;SDS011;11452;53.368;14.658;2023-04-06T19:58:43;4.17;;;3.70;;
22571;SDS011;11452;53.368;14.658;2023-04-06T20:03:49;6.00;;;3.73;;
22571;SDS011;11452;53.368;14.658;2023-04-06T20:08:55;4.23;;;3.07;;
22571;SDS011;11452;53.368;14.658;2023-04-06T20:14:01;6.10;;;3.43;;
22571;SDS011;11452;53.368;14.658;2023-04-06T20:19:07;5.70;;;3.67;;
22571;SDS011;11452;53.368;14.658;2023-04-06T20:24:13;3.60;;;3.23;;
22571;SDS011;11452;53.368;14.658;2023-04-06T20:29:19;5.63;;;3.80;;
22571;SDS011;11452;53.368;14.658;2023-04-06T20:34:24;7.50;;;3.80;;
22571;SDS011;11452;53.368;14.658;2023-04-06T20:39:31;5.70;;;3.50;;
22571;SDS011;11452;53.368;14.658;2023-04-06T20:44:37;6.47;;;4.47;;
22571;SDS011;11452;53.368;14.658;2023-04-06T20:49:42;5.57;;;3.90;;
22571;SDS011;11452;53.368;14.658;2023-04-06T20:54:48;8.00;;;4.83;;
22571;SDS011;11452;53.368;14.658;2023-04-06T20:59:54;6.37;;;5.63;;
22571;SDS011;11452;53.368;14.658;2023-04-06T21:04:59;8.70;;;5.50;;
22571;SDS011;11452;53.368;14.658;2023-04-06T21:10:06;5.87;;;5.10;;
22571;SDS011;11452;53.368;14.658;2023-04-06T21:15:12;6.57;;;5.07;;
22571;SDS011;11452;53.368;14.658;2023-04-06T21:20:17;8.53;;;5.33;;
22571;SDS011;11452;53.368;14.658;2023-04-06T21:25:23;7.77;;;5.00;;
22571;SDS011;11452;53.368;14.658;2023-04-06T21:30:28;10.60;;;6.00;;
22571;SDS011;11452;53.368;14.658;2023-04-06T21:35:40;9.50;;;4.90;;
22571;SDS011;11452;53.368;14.658;2023-04-06T21:40:52;8.70;;;4.80;;
22571;SDS011;11452;53.368;14.658;2023-04-06T21:45:59;5.87;;;4.90;;
22571;SDS011;11452;53.368;14.658;2023-04-06T21:51:04;6.70;;;5.40;;
22571;SDS011;11452;53.368;14.658;2023-04-06T21:56:10;6.97;;;4.33;;
22571;SDS011;11452;53.368;14.658;2023-04-06T22:01:15;6.53;;;4.60;;
22571;SDS011;11452;53.368;14.658;2023-04-06T22:06:21;7.70;;;5.43;;
22571;SDS011;11452;53.368;14.658;2023-04-06T22:11:28;7.40;;;5.00;;
22571;SDS011;11452;53.368;14.658;2023-04-06T22:16:34;9.17;;;4.70;;
22571;SDS011;11452;53.368;14.658;2023-04-06T22:21:39;7.20;;;4.77;;
22571;SDS011;11452;53.368;14.658;2023-04-06T22:26:45;7.27;;;5.10;;
22571;SDS011;11452;53.368;14.658;2023-04-06T22:31:50;6.63;;;4.33;;
22571;SDS011;11452;53.368;14.658;2023-04-06T22:36:56;6.27;;;4.83;;
22571;SDS011;11452;53.368;14.658;2023-04-06T22:42:01;7.67;;;4.93;;
22571;SDS011;11452;53.368;14.658;2023-04-06T22:47:08;5.53;;;4.20;;
22571;SDS011;11452;53.368;14.658;2023-04-06T22:52:14;7.33;;;4.23;;
22571;SDS011;11452;53.368;14.658;2023-04-06T22:57:20;7.33;;;4.20;;
22571;SDS011;11452;53.368;14.658;2023-04-06T23:02:25;7.50;;;4.90;;
22571;SDS011;11452;53.368;14.658;2023-04-06T23:07:31;5.93;;;4.10;;
22571;SDS011;11452;53.368;14.658;2023-04-06T23:12:38;7.73;;;4.60;;
22571;SDS011;11452;53.368;14.658;2023-04-06T23:17:43;5.33;;;4.20;;
22571;SDS011;11452;53.368;14.658;2023-04-06T23:22:49;6.10;;;4.13;;
22571;SDS011;11452;53.368;14.658;2023-04-06T23:27:55;5.80;;;4.20;;
22571;SDS011;11452;53.368;14.658;2023-04-06T23:33:00;8.60;;;5.10;;
22571;SDS011;11452;53.368;14.658;2023-04-06T23:38:06;6.50;;;3.93;;
22571;SDS011;11452;53.368;14.658;2023-04-06T23:43:12;6.87;;;4.97;;
22571;SDS011;11452;53.368;14.658;2023-04-06T23:48:17;5.43;;;4.10;;
22571;SDS011;11452;53.368;14.658;2023-04-06T23:53:23;6.07;;;3.90;;
22571;SDS011;11452;53.368;14.658;2023-04-06T23:58:29;4.93;;;4.43;;
